Cleveland, Ohio
Traffic Map
Current Weather Conditions
Cleveland, Ohio
Overcast Light Snow
Overcast
26°
Feels Like: 21°
Wind Chill: 21° Ceiling: 1500
Heat Index: 26° Visibility: 0.75mi
Dew Point: 24° Wind: 5mph
Humidity: 92% Direction: 280° (W)
Pressure: 30.26in Gusts: 0mph
Raw Report DataKBKL 011924Z 28004KT 3/4SM -SN BR VV015 M03/M04 A3026 RMK AO2 P0000 T10331044
Traffic Incident Summary
Active as of:
Severity:
Category:
InformationThere was an issue retrieving the traffic information for this location. Please try a different location or try again shortly.
Advertisements
Track Severe Weather on mobile